Knife Lake, Minnesota
Current Conditions -  °F | °C
As of 6:40 PM on Monday 24 Nov 2014 (Local Time) from KJMR Reporting Station
Broken Clouds Broken Clouds  
Wind Chill:   Ceiling: 2500
Heat Index: 18°   Visibility: 10mi
Dew Point: 10°   Wind: 15mph
Humidity: 73%   Direction: 330°NNW
Pressure: 29.75"   Gusts: 25mph
Location:  45.9652°N, 93.2874°W
Report Text: KJMR 250040Z AUTO 33013G22KT 10SM BKN025 M08/M12 A2975 RMK AO2
Loading
Personal Weather Stations






























Interactive Weather Map New forecast layout! Learn more

10-Day Weather Forecast

Advertisements
Track Severe Weather on mobile